createdAt,value
2023-05-02T00:01:53.426Z,9.82
2023-05-02T00:04:26.689Z,9.85
2023-05-02T00:07:06.683Z,9.91
2023-05-02T00:09:33.889Z,9.87
2023-05-02T00:27:30.396Z,9.86
2023-05-02T00:30:07.383Z,9.85
2023-05-02T00:32:37.278Z,9.86
2023-05-02T00:35:19.841Z,10.02
2023-05-02T00:37:47.192Z,10.11
2023-05-02T00:49:38.566Z,10.02
2023-05-02T00:55:08.393Z,10.10
2023-05-02T01:00:28.271Z,10.04
2023-05-02T01:03:34.559Z,10.09
2023-05-02T01:06:31.479Z,10.26
2023-05-02T01:09:33.073Z,10.12
2023-05-02T01:12:44.168Z,10.14
2023-05-02T01:15:22.879Z,10.25
2023-05-02T01:18:09.537Z,10.23
2023-05-02T01:20:43.552Z,10.13
2023-05-02T01:23:31.459Z,10.13
2023-05-02T01:29:38.502Z,10.23
2023-05-02T01:42:31.583Z,10.34
2023-05-02T01:45:26.560Z,10.12
2023-05-02T01:47:56.823Z,10.25
2023-05-02T01:53:41.249Z,10.24
2023-05-02T01:56:18.607Z,10.21
2023-05-02T02:06:16.219Z,10.34
2023-05-02T02:08:45.618Z,10.15
2023-05-02T02:18:08.624Z,10.11
2023-05-02T02:20:36.755Z,10.05
2023-05-02T02:23:15.523Z,10.04
2023-05-02T02:25:46.260Z,10.17
2023-05-02T02:28:38.005Z,9.94
2023-05-02T02:31:07.884Z,9.94
2023-05-02T02:39:48.644Z,9.66
2023-05-02T02:42:56.403Z,9.73
2023-05-02T02:45:49.114Z,9.50
2023-05-02T02:55:25.463Z,9.42
2023-05-02T02:58:32.432Z,9.40
2023-05-02T03:01:25.908Z,9.38
2023-05-02T03:04:04.537Z,9.36
2023-05-02T03:06:42.761Z,9.40
2023-05-02T03:09:22.257Z,9.31
2023-05-02T03:12:16.254Z,9.25
2023-05-02T03:15:37.110Z,9.47
2023-05-02T03:28:16.533Z,9.21
2023-05-02T03:30:44.802Z,9.26
2023-05-02T03:43:48.543Z,9.31
2023-05-02T03:46:30.472Z,9.11
2023-05-02T04:49:23.257Z,8.07
2023-05-02T04:51:52.271Z,7.87
2023-05-02T04:54:29.306Z,7.92
2023-05-02T04:56:56.460Z,7.68
2023-05-02T04:59:32.860Z,7.68
2023-05-02T05:05:58.857Z,7.60
2023-05-02T05:08:30.839Z,7.59
2023-05-02T05:11:20.335Z,7.56
2023-05-02T05:13:50.469Z,7.54
2023-05-02T05:29:53.254Z,7.40
2023-05-02T05:35:13.298Z,7.17
2023-05-02T05:37:52.563Z,7.19
2023-05-02T05:40:20.008Z,7.04
2023-05-02T05:49:12.813Z,7.04
2023-05-02T05:51:49.274Z,7.08
2023-05-02T05:54:24.173Z,6.94
2023-05-02T05:56:56.856Z,6.87
2023-05-02T05:59:34.961Z,6.97
2023-05-02T06:02:05.782Z,6.92
2023-05-02T06:07:22.011Z,6.87
2023-05-02T06:26:20.339Z,7.30
2023-05-02T06:28:49.608Z,7.21
2023-05-02T06:34:39.431Z,7.29
2023-05-02T06:53:23.249Z,7.80
2023-05-02T06:59:47.402Z,7.95
2023-05-02T07:17:42.149Z,8.11
2023-05-02T07:56:30.440Z,9.34
2023-05-02T08:16:09.362Z,9.85
2023-05-02T08:35:01.230Z,9.31
2023-05-02T08:45:36.483Z,9.83
2023-05-02T08:49:10.317Z,9.95
2023-05-02T08:55:42.361Z,10.09
2023-05-02T09:26:33.496Z,10.56
2023-05-02T09:35:17.361Z,10.59
2023-05-02T10:03:18.451Z,10.54
2023-05-02T10:05:56.120Z,10.27
2023-05-02T10:08:27.646Z,10.45
2023-05-02T10:17:40.462Z,10.53
2023-05-02T10:27:34.447Z,10.70
2023-05-02T10:30:19.341Z,10.47
2023-05-02T10:35:34.701Z,10.44
2023-05-02T10:38:11.572Z,10.43
2023-05-02T10:40:51.205Z,10.40
2023-05-02T10:43:21.292Z,10.41
2023-05-02T10:49:02.224Z,10.65
2023-05-02T10:55:05.432Z,11.18
2023-05-02T11:01:02.636Z,11.44
2023-05-02T11:03:55.860Z,11.91
2023-05-02T11:09:54.393Z,11.72
2023-05-02T11:12:57.834Z,11.64
2023-05-02T11:23:04.691Z,12.04
2023-05-02T11:25:36.724Z,12.17
2023-05-02T11:41:09.404Z,12.04
2023-05-02T11:43:53.640Z,12.13
2023-05-02T11:46:21.406Z,12.04
2023-05-02T11:55:13.571Z,12.03
2023-05-02T12:00:56.349Z,11.84
2023-05-02T12:03:29.160Z,11.87
2023-05-02T12:12:51.374Z,13.25
2023-05-02T12:31:18.441Z,13.52
2023-05-02T12:45:46.386Z,12.91
2023-05-02T12:52:05.411Z,13.11
2023-05-02T13:01:32.589Z,13.70
2023-05-02T13:07:18.400Z,14.60
2023-05-02T13:12:37.959Z,14.94
2023-05-02T13:15:29.612Z,15.24
2023-05-02T13:18:40.844Z,15.31
2023-05-02T13:24:00.973Z,15.86
2023-05-02T13:33:08.266Z,16.02
2023-05-02T13:38:23.084Z,15.60
2023-05-02T13:41:52.472Z,15.31
2023-05-02T13:47:59.550Z,14.27
2023-05-02T13:53:23.348Z,13.68
2023-05-02T14:02:36.651Z,14.84
2023-05-02T14:05:06.545Z,15.61
2023-05-02T14:07:44.132Z,15.53
2023-05-02T14:10:58.968Z,15.56
2023-05-02T14:13:36.468Z,15.68
2023-05-02T14:16:03.829Z,15.83
2023-05-02T14:18:42.300Z,15.73
2023-05-02T14:21:23.803Z,15.97
2023-05-02T14:24:02.613Z,16.07
2023-05-02T14:26:29.637Z,16.19
2023-05-02T14:29:09.596Z,16.34
2023-05-02T14:34:34.709Z,15.82
2023-05-02T14:37:11.024Z,15.15
2023-05-02T14:39:37.949Z,14.64
2023-05-02T14:44:52.591Z,14.02
2023-05-02T14:47:26.555Z,13.83
2023-05-02T14:49:56.446Z,13.36
2023-05-02T14:52:29.634Z,13.34
2023-05-02T14:55:02.590Z,13.22
2023-05-02T14:57:38.569Z,13.41
2023-05-02T15:00:16.669Z,13.73
2023-05-02T15:03:28.014Z,13.60
2023-05-02T15:08:51.485Z,13.32
2023-05-02T15:12:24.650Z,13.26
2023-05-02T15:23:17.430Z,12.96
2023-05-02T15:25:51.519Z,12.89
2023-05-02T15:28:18.522Z,12.77
2023-05-02T15:34:23.655Z,12.49
2023-05-02T15:36:54.023Z,12.35
2023-05-02T15:39:31.500Z,12.46
2023-05-02T15:42:14.918Z,12.43
2023-05-02T15:47:26.583Z,12.54
2023-05-02T15:56:19.439Z,12.31
2023-05-02T15:58:55.751Z,12.31
2023-05-02T16:01:30.811Z,12.18
2023-05-02T16:04:35.617Z,12.27
2023-05-02T16:07:13.052Z,12.13
2023-05-02T16:09:48.514Z,12.22
2023-05-02T16:12:15.560Z,12.06
2023-05-02T16:14:49.652Z,12.01
2023-05-02T16:17:19.635Z,11.91
2023-05-02T16:22:40.551Z,11.87
2023-05-02T16:25:09.791Z,11.97
2023-05-02T16:27:51.149Z,11.98
2023-05-02T16:30:37.764Z,11.88
2023-05-02T16:33:13.663Z,11.69
2023-05-02T16:35:43.811Z,11.67
2023-05-02T16:38:25.482Z,11.89
2023-05-02T16:40:54.993Z,11.71
2023-05-02T16:50:25.569Z,12.15
2023-05-02T16:52:55.307Z,12.24
2023-05-02T16:55:49.453Z,12.44
2023-05-02T16:58:21.668Z,12.21
2023-05-02T17:01:14.653Z,11.98
2023-05-02T17:04:06.663Z,11.86
2023-05-02T17:06:33.799Z,11.74
2023-05-02T17:09:17.682Z,11.65
2023-05-02T17:11:44.893Z,11.39
2023-05-02T17:14:22.357Z,11.36
2023-05-02T17:16:56.613Z,11.49
2023-05-02T17:19:26.572Z,11.29
2023-05-02T17:22:04.709Z,11.14
2023-05-02T17:24:32.486Z,11.05
2023-05-02T17:27:06.670Z,11.04
2023-05-02T17:29:34.257Z,11.06
2023-05-02T17:32:08.560Z,10.80
2023-05-02T17:34:40.352Z,10.89
2023-05-02T17:37:14.661Z,10.80
2023-05-02T17:39:42.466Z,10.54
2023-05-02T17:42:09.656Z,10.65
2023-05-02T17:44:43.696Z,10.51
2023-05-02T17:47:24.251Z,10.64
2023-05-02T17:49:53.458Z,10.45
2023-05-02T17:52:27.677Z,10.29
2023-05-02T17:55:03.162Z,10.31
2023-05-02T17:57:36.616Z,10.18
2023-05-02T18:00:14.736Z,10.20
2023-05-02T18:02:43.543Z,10.02
2023-05-02T18:05:26.689Z,10.00
2023-05-02T18:07:55.351Z,10.15
2023-05-02T18:10:31.338Z,9.96
2023-05-02T18:12:58.610Z,9.91
2023-05-02T18:15:34.655Z,9.89
2023-05-02T18:18:08.744Z,9.93
2023-05-02T18:20:41.494Z,9.88
2023-05-02T18:23:17.706Z,9.80
2023-05-02T18:25:45.414Z,9.69
2023-05-02T18:28:19.688Z,9.82
2023-05-02T18:30:46.874Z,9.68
2023-05-02T18:33:23.639Z,9.59
2023-05-02T18:35:51.067Z,9.69
2023-05-02T18:38:24.707Z,9.73
2023-05-02T18:40:51.990Z,9.67
2023-05-02T18:43:25.648Z,9.66
2023-05-02T18:45:53.003Z,9.55
2023-05-02T18:48:29.673Z,9.64
2023-05-02T18:51:03.629Z,9.48
2023-05-02T18:53:37.697Z,9.57
2023-05-02T18:56:12.924Z,9.35
2023-05-02T18:58:46.742Z,9.38
2023-05-02T19:01:15.339Z,9.28
2023-05-02T19:03:46.325Z,9.27
2023-05-02T19:09:20.693Z,9.33
2023-05-02T19:11:54.762Z,9.31
2023-05-02T19:14:22.300Z,9.38
2023-05-02T19:16:57.732Z,9.21
2023-05-02T19:19:34.695Z,9.08
2023-05-02T19:22:08.646Z,9.02
2023-05-02T19:24:39.183Z,8.93
2023-05-02T19:27:17.566Z,8.91
2023-05-02T19:29:44.897Z,8.78
2023-05-02T19:32:40.709Z,8.62
2023-05-02T19:35:14.256Z,8.56
2023-05-02T19:37:48.754Z,8.52
2023-05-02T19:40:16.916Z,8.31
2023-05-02T19:42:47.435Z,8.34
2023-05-02T19:51:05.655Z,7.87
2023-05-02T19:53:45.652Z,7.73
2023-05-02T19:56:19.897Z,7.83
2023-05-02T19:58:53.825Z,7.58
2023-05-02T20:01:27.651Z,7.44
2023-05-02T20:03:55.280Z,7.39
2023-05-02T20:06:35.759Z,7.44
2023-05-02T20:09:05.581Z,7.22
2023-05-02T20:11:39.684Z,7.03
2023-05-02T20:14:09.552Z,7.06
2023-05-02T20:16:43.708Z,7.01
2023-05-02T20:19:11.408Z,6.93
2023-05-02T20:21:54.472Z,6.95
2023-05-02T20:24:22.514Z,6.82
2023-05-02T20:26:58.400Z,6.57
2023-05-02T20:29:25.804Z,6.71
2023-05-02T20:34:45.757Z,6.47
2023-05-02T20:37:22.642Z,6.56
2023-05-02T20:39:56.907Z,6.33
2023-05-02T20:42:33.680Z,6.23
2023-05-02T20:45:09.947Z,6.21
2023-05-02T20:47:46.680Z,6.18
2023-05-02T20:50:17.671Z,6.21
2023-05-02T20:58:29.541Z,5.86
2023-05-02T21:01:06.288Z,5.80
2023-05-02T21:03:48.207Z,5.78
2023-05-02T21:06:29.424Z,5.77
2023-05-02T21:08:56.941Z,5.66
2023-05-02T21:11:33.786Z,5.59
2023-05-02T21:14:01.191Z,5.75
2023-05-02T21:16:38.418Z,5.47
2023-05-02T21:19:09.152Z,5.66
2023-05-02T21:21:48.686Z,5.42
2023-05-02T21:24:16.269Z,5.44
2023-05-02T21:27:22.905Z,5.55
2023-05-02T21:29:50.559Z,5.43
2023-05-02T21:32:28.616Z,5.34
2023-05-02T21:34:58.344Z,5.38
2023-05-02T21:37:32.842Z,5.24
2023-05-02T21:40:10.115Z,5.14
2023-05-02T21:42:44.859Z,5.07
2023-05-02T21:45:22.168Z,4.92
2023-05-02T21:47:55.894Z,4.94
2023-05-02T21:50:38.095Z,4.92
2023-05-02T21:55:58.742Z,4.75
2023-05-02T21:58:32.793Z,4.79
2023-05-02T22:01:03.077Z,4.67
2023-05-02T22:03:37.898Z,4.68
2023-05-02T22:06:18.767Z,4.58
2023-05-02T22:08:46.377Z,4.62
2023-05-02T22:11:23.831Z,4.61
2023-05-02T22:13:51.513Z,4.53
2023-05-02T22:16:27.900Z,4.52
2023-05-02T22:18:55.424Z,4.49
2023-05-02T22:21:29.767Z,4.51
2023-05-02T22:24:03.785Z,4.27
2023-05-02T22:26:30.814Z,4.20
2023-05-02T22:35:15.629Z,4.17
2023-05-02T22:37:51.784Z,4.09
2023-05-02T22:40:25.773Z,4.03
2023-05-02T22:42:52.736Z,4.07
2023-05-02T22:45:26.727Z,4.05
2023-05-02T22:58:11.814Z,3.98
2023-05-02T23:00:39.007Z,3.73
2023-05-02T23:03:13.878Z,3.77
2023-05-02T23:11:57.833Z,3.52
2023-05-02T23:14:31.794Z,3.57
2023-05-02T23:17:03.204Z,3.54
2023-05-02T23:19:36.807Z,3.40
2023-05-02T23:22:10.900Z,3.47
2023-05-02T23:24:52.118Z,3.33
2023-05-02T23:27:46.100Z,3.36
2023-05-02T23:33:59.290Z,3.27
2023-05-02T23:36:27.481Z,3.28
2023-05-02T23:39:04.777Z,3.20
2023-05-02T23:41:49.154Z,3.23
2023-05-02T23:44:22.824Z,3.32
2023-05-02T23:46:58.837Z,3.18
2023-05-02T23:49:26.932Z,3.14
2023-05-02T23:52:03.659Z,3.01
2023-05-02T23:54:32.023Z,2.99
2023-05-02T23:57:23.878Z,2.93
2023-05-02T23:59:57.896Z,2.93
